Time;durP1;ratioP1;P1;durP2;ratioP2;P2;SDS_P1;SDS_P2;PMS_P1;PMS_P2;Temp;Humidity;BMP_temperature;BMP_pressure;BME280_temperature;BME280_humidity;BME280_pressure;Samples;Min_cycle;Max_cycle;Signal;HPM_P1;HPM_P2
2023/08/30 00:00:39;;;;;;;9.17;6.47;;;;;;;14.95;100.00;100790.75;5236992;28;20032;-71
2023/08/30 00:03:11;;;;;;;8.83;6.70;;;;;;;15.11;100.00;100785.91;5237148;28;20489;-71
2023/08/30 00:05:43;;;;;;;9.83;7.07;;;;;;;14.88;100.00;100785.13;5237439;28;20037;-72
2023/08/30 00:08:18;;;;;;;9.77;6.83;;;;;;;14.84;100.00;100763.44;5254343;28;20051;-71
2023/08/30 00:10:49;;;;;;;7.53;6.37;;;;;;;15.03;100.00;100783.03;5255046;28;20108;-71
2023/08/30 00:13:20;;;;;;;8.77;7.07;;;;;;;14.81;100.00;100783.91;5254052;28;20104;-72
2023/08/30 00:15:52;;;;;;;8.23;6.70;;;;;;;14.75;100.00;100788.69;5244431;28;20048;-71
2023/08/30 00:18:23;;;;;;;9.80;7.13;;;;;;;14.67;100.00;100784.97;5233029;28;20051;-71
2023/08/30 00:20:56;;;;;;;10.07;7.70;;;;;;;14.72;100.00;100777.53;5232461;28;20557;-72
2023/08/30 00:23:28;;;;;;;8.67;7.77;;;;;;;14.68;100.00;100771.66;5254563;28;20353;-71
2023/08/30 00:25:59;;;;;;;15.10;7.93;;;;;;;14.62;100.00;100777.44;5254843;28;20025;-71
2023/08/30 00:28:30;;;;;;;8.37;7.30;;;;;;;14.58;100.00;100773.34;5243185;28;20377;-74
2023/08/30 00:31:01;;;;;;;7.63;6.87;;;;;;;14.74;100.00;100776.47;5216504;28;20025;-71
2023/08/30 00:33:33;;;;;;;10.37;7.50;;;;;;;14.78;100.00;100776.22;5249890;28;20085;-71
2023/08/30 00:36:04;;;;;;;8.00;6.67;;;;;;;14.64;100.00;100776.34;5246303;28;20157;-71
2023/08/30 00:38:36;;;;;;;9.37;8.23;;;;;;;14.52;100.00;100756.25;5248848;28;20025;-71
2023/08/30 00:41:07;;;;;;;11.53;7.50;;;;;;;14.78;100.00;100763.03;5253428;28;20040;-72
2023/08/30 00:43:39;;;;;;;10.30;7.50;;;;;;;14.56;100.00;100762.94;5249799;28;20086;-71
2023/08/30 00:46:11;;;;;;;10.73;8.13;;;;;;;14.56;100.00;100756.81;5249754;28;20043;-71
2023/08/30 00:48:44;;;;;;;8.87;7.47;;;;;;;14.47;100.00;100753.94;5253867;28;20055;-71
2023/08/30 00:51:15;;;;;;;10.73;6.87;;;;;;;14.74;100.00;100744.84;5239393;28;20535;-71
2023/08/30 00:53:48;;;;;;;10.53;6.97;;;;;;;14.48;100.00;100739.84;5253767;28;20143;-72
2023/08/30 00:56:19;;;;;;;7.53;6.63;;;;;;;14.38;100.00;100749.41;5252730;28;20107;-71
2023/08/30 00:58:51;;;;;;;10.77;7.30;;;;;;;14.62;100.00;100741.38;5253749;28;20132;-71
2023/08/30 01:01:22;;;;;;;9.37;6.40;;;;;;;14.49;100.00;100730.97;5235419;28;20029;-71
2023/08/30 01:03:54;;;;;;;8.90;6.73;;;;;;;14.31;100.00;100740.31;5252077;28;20087;-71
2023/08/30 01:06:26;;;;;;;8.50;7.03;;;;;;;14.25;100.00;100729.28;5248451;28;20037;-71
2023/08/30 01:08:57;;;;;;;8.40;6.50;;;;;;;14.26;100.00;100719.59;5246763;23;20103;-76
2023/08/30 01:11:54;;;;;;;9.57;7.33;;;;;;;14.34;100.00;100719.00;5233365;28;20729;-76
2023/08/30 01:14:50;;;;;;;11.90;7.20;;;;;;;14.45;100.00;100745.31;5252835;28;20035;-77
2023/08/30 01:17:23;;;;;;;9.57;6.93;;;;;;;14.20;100.00;100743.75;5249416;28;20021;-77
2023/08/30 01:20:15;;;;;;;9.83;7.00;;;;;;;14.30;100.00;100718.38;5253526;28;20460;-77
2023/08/30 01:23:11;;;;;;;8.03;6.70;;;;;;;14.37;100.00;100734.53;5253949;28;20036;-77
2023/08/30 01:26:18;;;;;;;10.33;7.73;;;;;;;14.40;100.00;100736.94;5253605;28;20082;-77
2023/08/30 01:28:51;;;;;;;7.77;6.77;;;;;;;14.30;100.00;100733.34;5245933;28;20048;-76
2023/08/30 01:31:23;;;;;;;8.30;6.70;;;;;;;13.73;100.00;100682.31;5253801;28;20652;-75
2023/08/30 01:33:55;;;;;;;7.80;6.57;;;;;;;13.66;100.00;100687.22;5253705;28;20083;-75
2023/08/30 01:36:27;;;;;;;10.17;6.60;;;;;;;14.00;100.00;100699.56;5254042;28;20041;-76
2023/08/30 01:38:59;;;;;;;9.67;7.60;;;;;;;13.79;100.00;100687.09;5253482;28;20094;-77
2023/08/30 01:41:32;;;;;;;9.53;7.07;;;;;;;13.86;100.00;100723.50;5234118;28;20478;-76
2023/08/30 01:44:05;;;;;;;7.00;6.07;;;;;;;14.09;100.00;100711.19;5235347;28;20388;-76
2023/08/30 01:46:37;;;;;;;8.50;6.00;;;;;;;14.09;100.00;100721.72;5253369;28;20040;-76
2023/08/30 01:49:10;;;;;;;10.50;6.77;;;;;;;13.63;100.00;100692.69;5253541;28;20263;-77
2023/08/30 01:51:41;;;;;;;7.47;6.47;;;;;;;13.71;100.00;100705.28;5253847;28;20518;-77
2023/08/30 01:54:17;;;;;;;10.07;6.37;;;;;;;13.77;100.00;100694.28;5253008;28;20047;-76
2023/08/30 01:56:49;;;;;;;8.57;7.07;;;;;;;13.84;100.00;100714.88;5253177;28;20033;-76
2023/08/30 01:59:20;;;;;;;8.13;6.30;;;;;;;13.67;100.00;100688.03;5235381;28;20047;-76
2023/08/30 02:01:51;;;;;;;10.73;6.20;;;;;;;13.83;100.00;100695.59;5252340;28;20033;-76
2023/08/30 02:04:23;;;;;;;8.87;7.00;;;;;;;13.39;100.00;100683.03;5253318;28;20434;-76
2023/08/30 02:07:00;;;;;;;10.13;6.70;;;;;;;13.62;100.00;100700.69;5253577;28;20032;-76
2023/08/30 02:09:56;;;;;;;9.93;6.87;;;;;;;14.00;100.00;100694.31;5252384;28;20060;-76
2023/08/30 02:12:53;;;;;;;7.90;6.17;;;;;;;14.02;100.00;100715.25;5252541;28;20112;-76
2023/08/30 02:15:26;;;;;;;7.57;6.57;;;;;;;13.71;100.00;100726.31;5243572;28;20045;-76
2023/08/30 02:17:59;;;;;;;9.63;6.83;;;;;;;13.48;100.00;100689.38;5253039;28;20369;-76
2023/08/30 02:20:31;;;;;;;10.80;7.27;;;;;;;13.47;100.00;100685.09;5234035;28;20108;-76
2023/08/30 02:23:03;;;;;;;9.27;7.50;;;;;;;13.61;100.00;100717.44;5252999;28;20064;-76
2023/08/30 02:25:34;;;;;;;11.40;6.80;;;;;;;13.63;100.00;100707.66;5253838;28;20064;-76
2023/08/30 02:28:06;;;;;;;8.47;7.20;;;;;;;13.55;100.00;100685.38;5248263;28;20017;-76
2023/08/30 02:30:37;;;;;;;7.63;6.77;;;;;;;13.54;100.00;100683.69;5263879;28;20021;-76
2023/08/30 02:33:08;;;;;;;8.00;7.03;;;;;;;13.30;100.00;100663.50;5274068;28;20025;-76
2023/08/30 02:35:40;;;;;;;9.67;7.03;;;;;;;13.69;100.00;100704.53;5243982;28;20087;-76
2023/08/30 02:38:11;;;;;;;8.07;7.27;;;;;;;13.78;100.00;100695.97;5259899;28;20052;-76
2023/08/30 02:40:43;;;;;;;10.03;7.37;;;;;;;13.63;100.00;100665.56;5237386;28;20033;-75
2023/08/30 02:43:14;;;;;;;12.20;7.47;;;;;;;13.63;100.00;100655.03;5254498;28;20028;-76
2023/08/30 02:45:45;;;;;;;13.73;8.90;;;;;;;13.83;100.00;100669.28;5251939;28;20071;-76
2023/08/30 02:48:17;;;;;;;11.57;8.63;;;;;;;13.61;100.00;100643.78;5251235;28;20036;-76
2023/08/30 02:50:48;;;;;;;13.80;9.20;;;;;;;13.91;100.00;100659.00;5234991;28;20035;-76
2023/08/30 02:53:19;;;;;;;13.03;9.70;;;;;;;13.79;100.00;100657.31;5252796;28;20490;-76
2023/08/30 02:55:51;;;;;;;14.30;9.17;;;;;;;13.79;100.00;100658.16;5251864;28;20068;-76
2023/08/30 02:58:23;;;;;;;10.57;9.27;;;;;;;13.84;100.00;100646.44;5234189;28;20037;-76
2023/08/30 03:00:54;;;;;;;9.50;8.50;;;;;;;14.00;100.00;100678.50;5252284;28;20025;-76
2023/08/30 03:03:25;;;;;;;11.10;9.47;;;;;;;13.84;100.00;100633.28;5232492;28;20038;-76
2023/08/30 03:05:57;;;;;;;10.60;9.13;;;;;;;14.32;100.00;100676.13;5251964;28;20457;-76
2023/08/30 03:08:28;;;;;;;10.53;9.40;;;;;;;13.81;100.00;100625.63;5252488;28;20522;-76
2023/08/30 03:11:13;;;;;;;13.63;9.10;;;;;;;14.25;100.00;100650.28;5252143;28;20353;-76
2023/08/30 03:13:44;;;;;;;13.32;10.15;;;;;;;14.05;100.00;100670.25;5254314;28;20068;-76
2023/08/30 03:16:16;;;;;;;12.80;9.57;;;;;;;14.06;100.00;100657.94;5255882;28;20111;-76
2023/08/30 03:18:48;;;;;;;10.63;9.43;;;;;;;14.19;100.00;100642.03;5256732;28;20028;-76
2023/08/30 03:21:19;;;;;;;12.10;9.33;;;;;;;14.18;100.00;100659.59;5237895;28;20025;-76
2023/08/30 03:23:50;;;;;;;10.63;9.10;;;;;;;14.19;100.00;100634.94;5256425;28;20036;-76
2023/08/30 03:26:22;;;;;;;10.57;8.80;;;;;;;14.49;100.00;100667.72;5255257;28;20067;-76
2023/08/30 03:28:53;;;;;;;10.50;8.50;;;;;;;14.19;100.00;100632.28;5237996;28;20040;-76
2023/08/30 03:31:24;;;;;;;12.87;9.17;;;;;;;13.96;100.00;100634.97;5253913;28;20060;-76
2023/08/30 03:33:56;;;;;;;10.80;8.10;;;;;;;14.14;100.00;100629.19;5252344;28;20033;-76
2023/08/30 03:36:27;;;;;;;15.20;8.77;;;;;;;14.26;100.00;100646.66;5254664;28;20036;-76
2023/08/30 03:38:59;;;;;;;15.07;8.97;;;;;;;14.17;100.00;100609.69;5255957;28;20052;-76
2023/08/30 03:41:30;;;;;;;9.63;8.43;;;;;;;14.21;100.00;100611.94;5254306;28;20597;-76
2023/08/30 03:44:01;;;;;;;12.13;8.73;;;;;;;14.21;100.00;100606.69;5254806;28;20569;-76
2023/08/30 03:46:33;;;;;;;9.37;8.23;;;;;;;14.33;100.00;100619.84;5255870;28;20033;-76
2023/08/30 03:49:05;;;;;;;11.00;8.47;;;;;;;14.05;100.00;100574.63;5255395;28;20120;-76
2023/08/30 03:51:36;;;;;;;11.17;9.50;;;;;;;14.22;100.00;100581.19;5255175;28;20040;-76
2023/08/30 03:54:11;;;;;;;13.27;9.90;;;;;;;14.17;100.00;100578.94;5237729;28;20131;-76
2023/08/30 03:56:43;;;;;;;9.50;8.43;;;;;;;14.22;100.00;100579.41;5254281;28;20116;-76
2023/08/30 03:59:14;;;;;;;12.93;9.73;;;;;;;14.18;100.00;100570.06;5236553;28;20028;-76
2023/08/30 04:01:46;;;;;;;10.63;9.23;;;;;;;14.32;100.00;100581.28;5254583;28;20465;-76
2023/08/30 04:04:17;;;;;;;11.70;9.97;;;;;;;14.34;100.00;100579.38;5250790;28;20040;-76
2023/08/30 04:06:49;;;;;;;12.07;9.83;;;;;;;14.42;100.00;100582.22;5252521;28;20041;-76
2023/08/30 04:09:21;;;;;;;13.10;10.37;;;;;;;14.06;100.00;100549.97;5255200;28;20504;-76
2023/08/30 04:11:52;;;;;;;13.23;11.33;;;;;;;14.17;100.00;100551.75;5253744;28;20201;-76
2023/08/30 04:14:23;;;;;;;12.33;10.47;;;;;;;14.26;100.00;100562.38;5254429;28;20033;-77
2023/08/30 04:16:54;;;;;;;14.43;10.13;;;;;;;14.07;100.00;100530.59;5254882;28;20090;-76
2023/08/30 04:19:26;;;;;;;12.73;9.73;;;;;;;14.19;100.00;100544.56;5254951;28;20070;-76
2023/08/30 04:21:57;;;;;;;9.67;8.47;;;;;;;14.32;100.00;100565.47;5254620;28;20075;-76
2023/08/30 04:24:28;;;;;;;13.23;10.43;;;;;;;14.05;100.00;100537.78;5253491;28;20029;-76
2023/08/30 04:27:00;;;;;;;9.83;8.83;;;;;;;14.15;100.00;100554.50;5254156;28;20431;-76
2023/08/30 04:29:31;;;;;;;12.83;9.33;;;;;;;14.32;100.00;100561.06;5255115;28;20021;-76
2023/08/30 04:32:03;;;;;;;13.60;10.27;;;;;;;14.11;100.00;100538.13;5254267;28;20035;-76
2023/08/30 04:34:34;;;;;;;11.27;10.07;;;;;;;14.06;100.00;100555.22;5254880;28;20036;-76
2023/08/30 04:37:06;;;;;;;10.17;9.07;;;;;;;14.39;100.00;100569.28;5254591;28;20115;-76
2023/08/30 04:39:37;;;;;;;13.40;10.37;;;;;;;14.13;100.00;100541.47;5236482;28;20086;-76
2023/08/30 04:42:08;;;;;;;12.27;9.40;;;;;;;14.41;100.00;100570.00;5253823;28;20500;-76
2023/08/30 04:44:40;;;;;;;14.33;9.03;;;;;;;14.34;100.00;100542.50;5250537;28;20484;-76
2023/08/30 04:47:11;;;;;;;11.53;9.23;;;;;;;14.19;100.00;100540.13;5254217;28;20037;-76
2023/08/30 04:49:43;;;;;;;11.33;9.03;;;;;;;14.49;100.00;100556.19;5234038;28;20074;-76
2023/08/30 04:52:14;;;;;;;12.07;9.77;;;;;;;14.30;100.00;100547.16;5236776;28;20718;-76
2023/08/30 04:54:45;;;;;;;12.83;10.70;;;;;;;14.07;100.00;100514.78;5254122;28;20081;-76
2023/08/30 04:57:17;;;;;;;14.20;10.20;;;;;;;14.30;100.00;100531.34;5253593;28;20100;-76
2023/08/30 04:59:48;;;;;;;14.13;8.87;;;;;;;14.31;100.00;100521.66;5254382;28;20029;-76
2023/08/30 05:02:20;;;;;;;13.37;10.00;;;;;;;14.37;100.00;100539.59;5253593;28;20029;-76
2023/08/30 05:04:51;;;;;;;13.10;10.03;;;;;;;14.43;100.00;100541.75;5254742;28;20111;-76
2023/08/30 05:07:23;;;;;;;15.63;11.13;;;;;;;14.23;100.00;100517.00;5254054;28;20025;-76
2023/08/30 05:09:54;;;;;;;15.63;9.80;;;;;;;14.24;100.00;100498.44;5253938;28;20028;-76
2023/08/30 05:12:26;;;;;;;13.30;10.43;;;;;;;14.35;100.00;100528.34;5252649;28;20029;-76
2023/08/30 05:14:57;;;;;;;11.80;9.43;;;;;;;14.25;100.00;100520.34;5254609;28;20060;-76
2023/08/30 05:17:28;;;;;;;14.90;9.10;;;;;;;14.31;100.00;100490.91;5253758;28;20580;-76
2023/08/30 05:20:02;;;;;;;10.83;8.90;;;;;;;14.33;100.00;100486.31;5253838;28;20159;-76
2023/08/30 05:22:34;;;;;;;12.35;8.50;;;;;;;14.47;100.00;100503.63;5236139;28;20052;-76
2023/08/30 05:25:05;;;;;;;11.00;9.43;;;;;;;14.69;100.00;100532.66;5253654;28;20025;-76
2023/08/30 05:27:37;;;;;;;12.77;9.07;;;;;;;14.40;100.00;100494.56;5252287;28;20539;-76
2023/08/30 05:30:09;;;;;;;9.90;8.90;;;;;;;14.55;100.00;100497.75;5246020;28;20094;-76
2023/08/30 05:32:40;;;;;;;14.53;10.27;;;;;;;14.55;100.00;100505.66;5247893;28;20025;-77
2023/08/30 05:35:11;;;;;;;12.43;9.27;;;;;;;14.58;100.00;100502.75;5242102;28;20036;-77
2023/08/30 05:37:43;;;;;;;10.10;9.00;;;;;;;14.69;100.00;100501.03;5253572;28;20017;-77
2023/08/30 05:40:16;;;;;;;13.17;10.00;;;;;;;14.85;100.00;100514.63;5248895;28;20063;-78
2023/08/30 05:42:48;;;;;;;11.18;8.52;;;;;;;14.60;100.00;100474.47;5247239;28;20052;-78
2023/08/30 05:45:19;;;;;;;11.57;9.67;;;;;;;14.82;100.00;100492.97;5252263;28;21941;-76
2023/08/30 05:47:51;;;;;;;11.37;9.87;;;;;;;14.93;100.00;100521.06;5255488;28;20060;-77
2023/08/30 05:50:22;;;;;;;12.30;8.47;;;;;;;14.83;100.00;100500.75;5246825;28;20037;-77
2023/08/30 05:52:53;;;;;;;14.07;9.77;;;;;;;14.84;100.00;100485.75;5227411;28;20028;-77
2023/08/30 05:55:25;;;;;;;13.37;10.40;;;;;;;14.78;100.00;100479.19;5232353;28;20055;-78
2023/08/30 05:57:56;;;;;;;11.37;8.97;;;;;;;14.94;100.00;100497.19;5252122;28;20115;-78
2023/08/30 06:00:27;;;;;;;12.60;9.93;;;;;;;15.02;100.00;100499.19;5234245;28;20140;-78
2023/08/30 06:02:59;;;;;;;13.43;9.00;;;;;;;15.06;100.00;100494.50;5236317;28;20116;-78
2023/08/30 06:05:30;;;;;;;11.57;9.13;;;;;;;15.03;100.00;100486.84;5235616;28;20029;-77
2023/08/30 06:08:02;;;;;;;11.20;9.17;;;;;;;14.90;100.00;100464.16;5244842;28;20063;-76
2023/08/30 06:10:35;;;;;;;12.87;9.07;;;;;;;15.06;100.00;100478.69;5242113;28;20040;-76
2023/08/30 06:13:06;;;;;;;16.83;9.63;;;;;;;15.10;100.00;100485.34;5252924;28;20025;-77
2023/08/30 06:15:38;;;;;;;15.70;10.23;;;;;;;14.95;100.00;100469.88;5251875;28;20476;-77
2023/08/30 06:18:10;;;;;;;15.40;8.90;;;;;;;15.11;100.00;100492.31;5251706;28;20028;-78
2023/08/30 06:20:41;;;;;;;15.30;9.17;;;;;;;15.07;100.00;100485.63;5244538;28;20029;-77
2023/08/30 06:23:15;;;;;;;13.63;8.97;;;;;;;14.96;100.00;100463.63;5251122;28;20040;-77
2023/08/30 06:25:54;;;;;;;12.20;9.37;;;;;;;15.28;100.00;100488.22;5251568;28;20025;-78
2023/08/30 06:28:25;;;;;;;12.80;8.87;;;;;;;14.95;100.00;100461.97;5251682;28;20108;-78
2023/08/30 06:30:57;;;;;;;15.20;9.87;;;;;;;15.20;100.00;100474.88;5252921;28;20548;-78
2023/08/30 06:33:28;;;;;;;14.30;8.60;;;;;;;15.14;100.00;100465.66;5250689;28;20783;-78
2023/08/30 06:36:00;;;;;;;19.03;10.27;;;;;;;15.14;100.00;100463.03;5245928;28;20016;-78
2023/08/30 06:38:31;;;;;;;12.63;8.77;;;;;;;15.28;100.00;100492.66;5252007;28;20540;-78
2023/08/30 06:41:03;;;;;;;17.10;10.03;;;;;;;15.26;100.00;100494.59;5250655;28;20032;-77
2023/08/30 06:43:34;;;;;;;14.80;10.13;;;;;;;15.20;100.00;100502.06;5252403;28;20029;-77
2023/08/30 06:46:05;;;;;;;13.27;9.83;;;;;;;15.00;100.00;100465.06;5250047;28;20036;-77
2023/08/30 06:48:37;;;;;;;13.87;9.63;;;;;;;15.10;100.00;100495.91;5254371;28;20086;-76
2023/08/30 06:51:08;;;;;;;11.60;10.30;;;;;;;15.14;100.00;100464.81;5238150;28;20192;-76
2023/08/30 06:53:39;;;;;;;13.33;9.80;;;;;;;14.98;100.00;100472.25;5256046;28;20059;-76
2023/08/30 06:56:11;;;;;;;13.70;10.30;;;;;;;15.11;100.00;100487.84;5255732;28;20028;-76
2023/08/30 06:58:42;;;;;;;14.63;10.17;;;;;;;15.19;100.00;100504.84;5255556;28;20033;-76
2023/08/30 07:01:13;;;;;;;25.27;13.33;;;;;;;15.17;100.00;100506.78;5238115;28;20021;-76
2023/08/30 07:03:45;;;;;;;12.30;10.77;;;;;;;15.11;100.00;100505.50;5254355;28;20427;-75
2023/08/30 07:06:16;;;;;;;15.70;11.43;;;;;;;15.07;100.00;100496.16;5250478;28;20120;-75
2023/08/30 07:08:47;;;;;;;15.77;11.33;;;;;;;15.07;100.00;100496.16;5254967;28;20049;-76
2023/08/30 07:11:19;;;;;;;14.43;10.50;;;;;;;15.16;100.00;100495.41;5251437;28;20033;-75
2023/08/30 07:13:50;;;;;;;14.27;12.17;;;;;;;15.08;100.00;100466.22;5255540;28;20759;-76
2023/08/30 07:16:22;;;;;;;17.87;11.83;;;;;;;14.84;100.00;100427.75;5255235;28;20107;-75
2023/08/30 07:18:53;;;;;;;27.13;11.10;;;;;;;14.97;100.00;100453.94;5256868;28;20036;-76
2023/08/30 07:21:24;;;;;;;13.73;10.83;;;;;;;14.78;100.00;100433.53;5254948;28;20020;-77
2023/08/30 07:23:56;;;;;;;12.10;9.90;;;;;;;14.81;100.00;100428.03;5246284;28;20091;-76
2023/08/30 07:26:27;;;;;;;12.37;10.03;;;;;;;14.79;100.00;100445.72;5253227;28;20118;-76
2023/08/30 07:28:59;;;;;;;14.20;9.70;;;;;;;14.57;100.00;100410.66;5230413;28;20080;-76
2023/08/30 07:31:32;;;;;;;12.67;9.13;;;;;;;14.61;100.00;100417.31;5255202;28;20372;-77
2023/08/30 07:34:03;;;;;;;11.23;9.33;;;;;;;14.68;100.00;100417.66;5254851;28;20044;-77
2023/08/30 07:36:35;;;;;;;12.73;8.83;;;;;;;14.63;100.00;100404.84;5250756;28;20372;-77
2023/08/30 07:39:06;;;;;;;12.10;8.80;;;;;;;14.71;100.00;100449.88;5255480;28;20025;-76
2023/08/30 07:41:38;;;;;;;13.20;9.33;;;;;;;14.72;100.00;100430.44;5254205;28;20027;-76
2023/08/30 07:44:09;;;;;;;11.70;7.00;;;;;;;14.85;100.00;100434.72;5252238;28;20065;-76
2023/08/30 07:46:40;;;;;;;14.37;8.17;;;;;;;14.92;100.00;100441.16;5249398;28;20090;-76
2023/08/30 07:49:12;;;;;;;9.43;7.87;;;;;;;14.58;100.00;100407.03;5255131;28;20116;-76
2023/08/30 07:51:43;;;;;;;12.17;9.27;;;;;;;14.62;100.00;100400.56;5255364;28;20503;-77
2023/08/30 07:54:15;;;;;;;11.07;7.73;;;;;;;14.76;100.00;100402.03;5255357;28;20033;-77
2023/08/30 07:56:46;;;;;;;8.87;7.97;;;;;;;14.91;100.00;100428.06;5236220;28;20067;-76
2023/08/30 07:59:17;;;;;;;9.80;8.60;;;;;;;14.94;100.00;100433.91;5236555;28;20556;-76
2023/08/30 08:01:49;;;;;;;10.50;8.20;;;;;;;14.68;100.00;100413.22;5236920;28;20048;-77
2023/08/30 08:04:20;;;;;;;8.87;7.97;;;;;;;14.97;100.00;100438.94;5254386;28;20667;-77
2023/08/30 08:06:52;;;;;;;9.10;6.77;;;;;;;14.75;100.00;100424.91;5236549;28;20514;-77
2023/08/30 08:09:23;;;;;;;7.90;6.60;;;;;;;14.87;100.00;100427.53;5254963;28;20049;-76
2023/08/30 08:11:56;;;;;;;7.47;5.53;;;;;;;14.81;100.00;100449.13;5253915;28;20108;-76
2023/08/30 08:14:27;;;;;;;8.77;5.70;;;;;;;14.95;100.00;100434.75;5254858;28;20448;-77
2023/08/30 08:16:58;;;;;;;9.07;6.13;;;;;;;14.79;100.00;100414.09;5254710;28;20075;-77
2023/08/30 08:19:30;;;;;;;8.90;5.77;;;;;;;14.88;100.00;100435.28;5253690;28;20021;-76
2023/08/30 08:22:01;;;;;;;8.03;6.07;;;;;;;14.87;100.00;100432.78;5227723;28;20030;-77
2023/08/30 08:24:32;;;;;;;8.47;5.63;;;;;;;14.93;100.00;100441.97;5253068;28;20032;-77
2023/08/30 08:27:05;;;;;;;6.13;5.53;;;;;;;14.87;100.00;100432.78;5248004;28;20028;-77
2023/08/30 08:29:37;;;;;;;7.73;5.73;;;;;;;14.86;100.00;100431.09;5255105;28;20104;-77
2023/08/30 08:32:08;;;;;;;5.83;5.23;;;;;;;14.94;100.00;100443.66;5254409;28;20033;-77
2023/08/30 08:34:40;;;;;;;6.23;5.30;;;;;;;14.85;100.00;100434.72;5252038;28;20566;-77
2023/08/30 08:37:33;;;;;;;10.47;5.53;;;;;;;15.11;100.00;100436.94;5245427;28;20037;-77
2023/08/30 08:40:08;;;;;;;5.67;4.93;;;;;;;14.80;100.00;100432.41;5252960;28;20604;-77
2023/08/30 08:42:41;;;;;;;5.60;5.00;;;;;;;14.95;100.00;100440.03;5236818;28;20028;-77
2023/08/30 08:45:13;;;;;;;4.93;4.47;;;;;;;15.02;100.00;100435.06;5254436;28;20025;-78
2023/08/30 08:47:46;;;;;;;8.50;5.00;;;;;;;15.03;100.00;100432.28;5236494;28;20032;-78
2023/08/30 08:50:17;;;;;;;7.23;4.97;;;;;;;14.97;100.00;100441.59;5253863;28;20052;-77
2023/08/30 08:52:49;;;;;;;6.63;4.43;;;;;;;15.03;100.00;100432.28;5252730;28;20051;-73
2023/08/30 08:55:20;;;;;;;5.73;4.50;;;;;;;15.03;100.00;100434.13;5244304;28;20033;-73
2023/08/30 08:57:53;;;;;;;8.47;4.70;;;;;;;15.07;100.00;100444.25;5253910;28;20540;-73
2023/08/30 09:00:25;;;;;;;5.30;4.80;;;;;;;15.02;100.00;100440.34;5253349;28;20388;-73
2023/08/30 09:02:57;;;;;;;4.97;3.87;;;;;;;15.02;100.00;100433.28;5253042;28;20025;-73
2023/08/30 09:05:30;;;;;;;6.03;5.43;;;;;;;15.10;100.00;100436.09;5252361;28;20021;-73
2023/08/30 09:08:03;;;;;;;4.80;4.20;;;;;;;15.19;100.00;100437.09;5233884;28;20071;-73
2023/08/30 09:10:34;;;;;;;6.10;4.63;;;;;;;15.22;100.00;100428.09;5251037;28;20029;-73
2023/08/30 09:13:06;;;;;;;6.73;4.40;;;;;;;15.40;100.00;100441.47;5252557;28;20044;-73
2023/08/30 09:15:37;;;;;;;5.37;4.87;;;;;;;15.41;100.00;100435.22;5251801;28;20179;-73
2023/08/30 09:18:16;;;;;;;6.17;4.23;;;;;;;15.64;100.00;100429.72;5251777;28;20036;-74
2023/08/30 09:20:47;;;;;;;4.83;4.30;;;;;;;15.79;100.00;100421.44;5233525;28;20029;-73
2023/08/30 09:23:24;;;;;;;6.93;4.43;;;;;;;15.87;100.00;100418.94;5251812;28;20025;-73
2023/08/30 09:25:56;;;;;;;5.33;4.83;;;;;;;15.88;100.00;100425.91;5251016;28;20389;-73
2023/08/30 09:28:27;;;;;;;5.80;4.33;;;;;;;15.88;100.00;100432.97;5252104;28;20421;-74
2023/08/30 09:31:00;;;;;;;6.07;4.60;;;;;;;15.86;100.00;100427.84;5233859;28;20025;-74
2023/08/30 09:33:33;;;;;;;4.43;4.03;;;;;;;15.90;100.00;100429.22;5252064;28;20021;-74
2023/08/30 09:36:11;;;;;;;5.40;4.63;;;;;;;15.98;100.00;100436.47;5251249;28;20459;-74
2023/08/30 09:38:48;;;;;;;6.77;4.80;;;;;;;16.14;100.00;100446.53;5250713;28;20028;-74
2023/08/30 09:41:19;;;;;;;6.67;5.23;;;;;;;16.09;100.00;100428.44;5249639;28;20021;-73
2023/08/30 09:43:58;;;;;;;5.20;4.47;;;;;;;16.27;100.00;100442.75;5247667;28;20082;-73
2023/08/30 09:46:29;;;;;;;7.13;4.40;;;;;;;16.18;100.00;100424.13;5246821;28;20042;-73
2023/08/30 09:49:00;;;;;;;5.53;4.97;;;;;;;16.23;100.00;100434.28;5250689;28;20483;-73
2023/08/30 09:51:34;;;;;;;5.17;4.63;;;;;;;16.50;100.00;100427.44;5251432;28;20028;-73
2023/08/30 09:54:10;;;;;;;5.28;4.78;;;;;;;16.98;100.00;100426.63;5250443;28;20020;-73
2023/08/30 09:56:43;;;;;;;6.33;5.73;;;;;;;17.57;100.00;100437.00;5250424;28;20031;-73
2023/08/30 09:59:15;;;;;;;6.33;5.13;;;;;;;17.67;100.00;100428.97;5252427;28;20040;-73
2023/08/30 10:01:53;;;;;;;5.97;5.33;;;;;;;17.94;100.00;100437.03;5269301;28;20021;-73
2023/08/30 10:04:26;;;;;;;7.60;5.13;;;;;;;18.02;100.00;100429.16;5238259;28;20017;-73
2023/08/30 10:06:58;;;;;;;5.60;5.10;;;;;;;18.68;100.00;100422.72;5232911;28;20037;-73
2023/08/30 10:09:30;;;;;;;5.27;4.77;;;;;;;18.88;100.00;100422.50;5249837;28;20063;-73
2023/08/30 10:12:03;;;;;;;6.03;5.00;;;;;;;19.56;100.00;100415.53;5250583;28;20350;-73
2023/08/30 10:14:35;;;;;;;5.10;4.20;;;;;;;20.59;100.00;100409.13;5237339;28;20238;-73
2023/08/30 10:17:11;;;;;;;5.03;4.20;;;;;;;21.25;100.00;100409.94;5250555;28;20353;-73
2023/08/30 10:19:45;;;;;;;4.50;4.10;;;;;;;22.11;100.00;100405.59;5237977;28;20167;-73
2023/08/30 10:22:17;;;;;;;4.03;3.70;;;;;;;22.59;100.00;100404.47;5233175;28;20025;-73
2023/08/30 10:24:56;;;;;;;4.18;3.78;;;;;;;23.20;100.00;100411.47;5236213;28;20025;-73
2023/08/30 10:27:29;;;;;;;4.65;3.53;;;;;;;23.41;100.00;100393.88;5254796;28;20187;-73
2023/08/30 10:30:03;;;;;;;3.97;3.50;;;;;;;23.46;100.00;100385.28;5254119;28;20090;-73
2023/08/30 10:32:42;;;;;;;4.20;3.67;;;;;;;23.62;100.00;100397.56;5235760;28;20403;-73
2023/08/30 10:35:15;;;;;;;4.43;4.03;;;;;;;23.53;100.00;100404.06;5252398;28;20028;-73
2023/08/30 10:37:56;;;;;;;5.00;3.47;;;;;;;24.38;100.00;100398.03;5254466;28;20080;-73
2023/08/30 10:40:28;;;;;;;3.95;3.25;;;;;;;24.83;100.00;100410.28;5250950;28;20391;-74
2023/08/30 10:43:04;;;;;;;4.80;3.80;;;;;;;24.92;100.00;100394.06;5256479;28;20036;-74
2023/08/30 10:45:35;;;;;;;5.10;3.38;;;;;;;24.81;100.00;100403.44;5253356;28;20119;-74
2023/08/30 10:48:06;;;;;;;3.97;3.55;;;;;;;24.50;100.00;100402.88;5253771;28;20025;-74
2023/08/30 10:50:38;;;;;;;3.95;3.33;;;;;;;24.50;100.00;100394.84;5255387;28;20021;-74
2023/08/30 10:53:16;;;;;;;6.00;3.90;;;;;;;24.71;100.00;100387.75;5253333;28;20480;-74
2023/08/30 10:56:03;;;;;;;4.82;3.38;;;;;;;24.57;100.00;100390.34;5251980;28;20031;-74
2023/08/30 10:58:43;;;;;;;4.40;3.55;;;;;;;24.18;100.00;100392.56;5234661;28;20047;-74
2023/08/30 11:01:15;;;;;;;5.07;3.53;;;;;;;23.88;100.00;100380.13;5252113;28;20520;-74
2023/08/30 11:03:49;;;;;;;4.15;3.58;;;;;;;23.63;100.00;100387.72;5235433;28;20025;-74
2023/08/30 11:06:21;;;;;;;4.07;3.67;;;;;;;23.27;100.00;100389.34;5251334;28;20557;-74
2023/08/30 11:08:53;;;;;;;6.53;3.65;;;;;;;23.00;100.00;100379.19;5242463;28;20123;-74
2023/08/30 11:11:24;;;;;;;3.33;3.03;;;;;;;23.01;100.00;100388.00;5242534;28;20124;-74
2023/08/30 11:14:07;;;;;;;4.85;2.83;;;;;;;22.95;100.00;100376.25;5239753;28;20453;-74
2023/08/30 11:16:39;;;;;;;4.85;3.10;;;;;;;22.88;100.00;100389.53;5231628;28;20025;-74
2023/08/30 11:19:11;;;;;;;4.68;2.78;;;;;;;22.97;100.00;100398.22;5237735;28;20033;-74
2023/08/30 11:21:44;;;;;;;6.75;2.40;;;;;;;23.03;100.00;100404.69;5242713;28;20568;-74
2023/08/30 11:24:16;;;;;;;7.35;2.47;;;;;;;23.19;100.00;100374.28;5240617;28;20026;-74
2023/08/30 11:26:53;;;;;;;4.55;2.70;;;;;;;22.99;100.00;100396.22;5254149;28;20110;-73
2023/08/30 11:29:26;;;;;;;4.22;2.67;;;;;;;22.83;100.00;100383.91;5253538;28;20044;-74
2023/08/30 11:31:58;;;;;;;5.97;2.85;;;;;;;22.55;100.00;100396.00;5254198;28;20025;-75
2023/08/30 11:34:29;;;;;;;9.25;3.88;;;;;;;22.46;100.00;100399.78;5233452;28;20040;-75
2023/08/30 11:37:00;;;;;;;7.43;3.53;;;;;;;22.41;100.00;100410.97;5253670;28;20549;-75